Terminal Aerodrome Forecast
Issued by NWS El Paso, TX

Home | Current Version | Previous Version | Text Only | Print | Product List | Glossary On
Versions: 1 2 3 4 5 6 7 8 9 10 11 12
680
FTUS44 KEPZ 010541
TAFELP
TAF
KELP 010541Z 0106/0206 29008KT P6SM FEW100
     FM011200 36014KT P6SM FEW100
     FM011600 04018G25KT P6SM SCT080
     FM011800 09015G22KT P6SM SCT100=

USA.gov is the U.S. government's official web portal to all federal, state and local government web resources and services.